YXLT weather

Caboolture Hospital Helipad
Caboolture, Queensland, Australia

Public forecast

Using degrees Celsius for public forecast. Weather courtesy of forecast.io.

Closest aviation weather report (METAR) to Caboolture Hospital Helipad

Closest report is Brisbane International Airport, 20.1 nm (37.1 km) SSE. Retrieved 2020/03/31 21:30 UTC (14 minutes ago):

YBBN 312130Z 21007KT 9999 FEW049 23/19 Q1017 NOSIG

Closest aviation forecast (TAF) to Caboolture Hospital Helipad

Closest forecast is Brisbane International Airport, 20.1 nm (37.1 km) SSE. Retrieved 2020/03/31 18:00 UTC (4 hours ago):

TAF YBBN 311724Z 3118/0200 20005KT 9999 SCT018 FM010000 13012KT 9999 FEW035 FM011200 18007KT 9999 SCT020